sensor_id;sensor_type;location;lat;lon;timestamp;temperature;humidity
14924;DHT22;7554;43.600;1.480;2022-11-20T00:00:22;7.10;1.00
14924;DHT22;7554;43.600;1.480;2022-11-20T00:02:49;7.10;1.00
14924;DHT22;7554;43.600;1.480;2022-11-20T00:05:17;7.10;1.00
14924;DHT22;7554;43.600;1.480;2022-11-20T00:07:45;7.10;1.00
14924;DHT22;7554;43.600;1.480;2022-11-20T00:10:12;7.20;1.00
14924;DHT22;7554;43.600;1.480;2022-11-20T00:12:39;7.20;1.00
14924;DHT22;7554;43.600;1.480;2022-11-20T00:15:08;7.20;1.00
14924;DHT22;7554;43.600;1.480;2022-11-20T00:17:37;7.20;1.00
14924;DHT22;7554;43.600;1.480;2022-11-20T00:20:05;7.20;1.00
14924;DHT22;7554;43.600;1.480;2022-11-20T00:22:33;7.20;1.00
14924;DHT22;7554;43.600;1.480;2022-11-20T00:25:00;7.20;1.00
14924;DHT22;7554;43.600;1.480;2022-11-20T00:27:28;7.10;1.00
14924;DHT22;7554;43.600;1.480;2022-11-20T00:29:55;7.20;1.00
14924;DHT22;7554;43.600;1.480;2022-11-20T00:32:22;7.20;1.00
14924;DHT22;7554;43.600;1.480;2022-11-20T00:34:51;7.20;1.00
14924;DHT22;7554;43.600;1.480;2022-11-20T00:37:19;7.20;1.00
14924;DHT22;7554;43.600;1.480;2022-11-20T00:39:46;7.10;1.00
14924;DHT22;7554;43.600;1.480;2022-11-20T00:42:13;7.00;1.00
14924;DHT22;7554;43.600;1.480;2022-11-20T00:44:41;7.10;1.00
14924;DHT22;7554;43.600;1.480;2022-11-20T00:47:08;7.20;1.00
14924;DHT22;7554;43.600;1.480;2022-11-20T00:49:35;7.20;1.00
14924;DHT22;7554;43.600;1.480;2022-11-20T00:52:04;7.20;1.00
14924;DHT22;7554;43.600;1.480;2022-11-20T00:54:32;7.20;1.00
14924;DHT22;7554;43.600;1.480;2022-11-20T00:56:59;7.20;1.00
14924;DHT22;7554;43.600;1.480;2022-11-20T00:59:26;7.20;1.00
14924;DHT22;7554;43.600;1.480;2022-11-20T01:01:54;7.20;1.00
14924;DHT22;7554;43.600;1.480;2022-11-20T01:04:21;7.30;1.00
14924;DHT22;7554;43.600;1.480;2022-11-20T01:06:48;7.30;1.00
14924;DHT22;7554;43.600;1.480;2022-11-20T01:09:17;7.30;1.00
14924;DHT22;7554;43.600;1.480;2022-11-20T01:11:45;7.30;1.00
14924;DHT22;7554;43.600;1.480;2022-11-20T01:14:14;7.40;1.00
14924;DHT22;7554;43.600;1.480;2022-11-20T01:16:43;7.40;1.00
14924;DHT22;7554;43.600;1.480;2022-11-20T01:19:12;7.40;1.00
14924;DHT22;7554;43.600;1.480;2022-11-20T01:21:42;7.40;1.00
14924;DHT22;7554;43.600;1.480;2022-11-20T01:24:12;7.40;1.00
14924;DHT22;7554;43.600;1.480;2022-11-20T01:26:42;7.50;1.00
14924;DHT22;7554;43.600;1.480;2022-11-20T01:29:13;7.50;1.00
14924;DHT22;7554;43.600;1.480;2022-11-20T01:31:42;7.50;1.00
14924;DHT22;7554;43.600;1.480;2022-11-20T01:34:12;7.40;1.00
14924;DHT22;7554;43.600;1.480;2022-11-20T01:36:40;7.40;1.00
14924;DHT22;7554;43.600;1.480;2022-11-20T01:39:11;7.40;1.00
14924;DHT22;7554;43.600;1.480;2022-11-20T01:41:41;7.40;1.00
14924;DHT22;7554;43.600;1.480;2022-11-20T01:44:52;7.40;1.00
14924;DHT22;7554;43.600;1.480;2022-11-20T01:47:30;7.40;1.00
14924;DHT22;7554;43.600;1.480;2022-11-20T01:50:03;7.20;1.00
14924;DHT22;7554;43.600;1.480;2022-11-20T01:52:34;7.10;1.00
14924;DHT22;7554;43.600;1.480;2022-11-20T01:55:05;6.90;1.00
14924;DHT22;7554;43.600;1.480;2022-11-20T01:57:36;6.80;1.00
14924;DHT22;7554;43.600;1.480;2022-11-20T02:00:06;6.70;1.00
14924;DHT22;7554;43.600;1.480;2022-11-20T02:02:35;6.60;1.00
14924;DHT22;7554;43.600;1.480;2022-11-20T02:05:12;6.60;1.00
14924;DHT22;7554;43.600;1.480;2022-11-20T02:07:41;6.60;1.00
14924;DHT22;7554;43.600;1.480;2022-11-20T02:10:09;6.50;1.00
14924;DHT22;7554;43.600;1.480;2022-11-20T02:12:38;6.40;1.00
14924;DHT22;7554;43.600;1.480;2022-11-20T02:15:23;6.40;1.00
14924;DHT22;7554;43.600;1.480;2022-11-20T02:17:50;6.40;1.00
14924;DHT22;7554;43.600;1.480;2022-11-20T02:20:18;6.30;1.00
14924;DHT22;7554;43.600;1.480;2022-11-20T02:22:50;6.30;1.00
14924;DHT22;7554;43.600;1.480;2022-11-20T02:25:21;6.20;1.00
14924;DHT22;7554;43.600;1.480;2022-11-20T02:27:51;6.20;1.00
14924;DHT22;7554;43.600;1.480;2022-11-20T02:30:18;6.20;1.00
14924;DHT22;7554;43.600;1.480;2022-11-20T02:32:46;6.20;1.00
14924;DHT22;7554;43.600;1.480;2022-11-20T02:35:44;6.10;1.00
14924;DHT22;7554;43.600;1.480;2022-11-20T02:38:12;6.10;1.00
14924;DHT22;7554;43.600;1.480;2022-11-20T02:40:41;6.10;1.00
14924;DHT22;7554;43.600;1.480;2022-11-20T02:43:09;6.00;1.00
14924;DHT22;7554;43.600;1.480;2022-11-20T02:45:36;6.00;1.00
14924;DHT22;7554;43.600;1.480;2022-11-20T02:48:05;6.00;1.00
14924;DHT22;7554;43.600;1.480;2022-11-20T02:50:32;5.90;1.00
14924;DHT22;7554;43.600;1.480;2022-11-20T02:53:00;5.90;1.00
14924;DHT22;7554;43.600;1.480;2022-11-20T02:55:27;5.90;1.00
14924;DHT22;7554;43.600;1.480;2022-11-20T02:57:56;5.90;1.00
14924;DHT22;7554;43.600;1.480;2022-11-20T03:00:23;5.80;1.00
14924;DHT22;7554;43.600;1.480;2022-11-20T03:02:51;5.80;1.00
14924;DHT22;7554;43.600;1.480;2022-11-20T03:05:18;5.80;1.00
14924;DHT22;7554;43.600;1.480;2022-11-20T03:07:45;5.80;1.00
14924;DHT22;7554;43.600;1.480;2022-11-20T03:10:13;5.80;1.00
14924;DHT22;7554;43.600;1.480;2022-11-20T03:12:40;5.70;1.00
14924;DHT22;7554;43.600;1.480;2022-11-20T03:15:10;5.70;1.00
14924;DHT22;7554;43.600;1.480;2022-11-20T03:17:37;5.70;1.00
14924;DHT22;7554;43.600;1.480;2022-11-20T03:20:06;5.60;1.00
14924;DHT22;7554;43.600;1.480;2022-11-20T03:22:33;5.60;1.00
14924;DHT22;7554;43.600;1.480;2022-11-20T03:25:00;5.60;1.00
14924;DHT22;7554;43.600;1.480;2022-11-20T03:27:32;5.60;1.00
14924;DHT22;7554;43.600;1.480;2022-11-20T03:30:00;5.60;1.00
14924;DHT22;7554;43.600;1.480;2022-11-20T03:32:29;5.50;1.00
14924;DHT22;7554;43.600;1.480;2022-11-20T03:34:57;5.50;1.00
14924;DHT22;7554;43.600;1.480;2022-11-20T03:37:24;5.50;1.00
14924;DHT22;7554;43.600;1.480;2022-11-20T03:39:51;5.50;1.00
14924;DHT22;7554;43.600;1.480;2022-11-20T03:42:19;5.50;1.00
14924;DHT22;7554;43.600;1.480;2022-11-20T03:45:04;5.40;1.00
14924;DHT22;7554;43.600;1.480;2022-11-20T03:47:33;5.40;1.00
14924;DHT22;7554;43.600;1.480;2022-11-20T03:50:01;5.40;1.00
14924;DHT22;7554;43.600;1.480;2022-11-20T03:52:28;5.40;1.00
14924;DHT22;7554;43.600;1.480;2022-11-20T03:54:55;5.30;1.00
14924;DHT22;7554;43.600;1.480;2022-11-20T03:57:23;5.40;1.00
14924;DHT22;7554;43.600;1.480;2022-11-20T03:59:50;5.30;1.00
14924;DHT22;7554;43.600;1.480;2022-11-20T04:02:18;5.30;1.00
14924;DHT22;7554;43.600;1.480;2022-11-20T04:04:46;5.30;1.00
14924;DHT22;7554;43.600;1.480;2022-11-20T04:07:14;5.30;1.00
14924;DHT22;7554;43.600;1.480;2022-11-20T04:09:41;5.30;1.00
14924;DHT22;7554;43.600;1.480;2022-11-20T04:12:09;5.30;1.00
14924;DHT22;7554;43.600;1.480;2022-11-20T04:14:36;5.30;1.00
14924;DHT22;7554;43.600;1.480;2022-11-20T04:17:04;5.30;1.00
14924;DHT22;7554;43.600;1.480;2022-11-20T04:19:31;5.20;1.00
14924;DHT22;7554;43.600;1.480;2022-11-20T04:22:00;5.20;1.00
14924;DHT22;7554;43.600;1.480;2022-11-20T04:24:27;5.20;1.00
14924;DHT22;7554;43.600;1.480;2022-11-20T04:26:55;5.10;1.00
14924;DHT22;7554;43.600;1.480;2022-11-20T04:29:22;5.10;1.00
14924;DHT22;7554;43.600;1.480;2022-11-20T04:31:49;5.10;1.00
14924;DHT22;7554;43.600;1.480;2022-11-20T04:34:17;5.10;1.00
14924;DHT22;7554;43.600;1.480;2022-11-20T04:36:44;5.10;1.00
14924;DHT22;7554;43.600;1.480;2022-11-20T04:39:14;5.10;1.00
14924;DHT22;7554;43.600;1.480;2022-11-20T04:41:43;5.10;1.00
14924;DHT22;7554;43.600;1.480;2022-11-20T04:44:10;5.10;1.00
14924;DHT22;7554;43.600;1.480;2022-11-20T04:46:40;5.00;1.00
14924;DHT22;7554;43.600;1.480;2022-11-20T04:49:08;5.00;1.00
14924;DHT22;7554;43.600;1.480;2022-11-20T04:51:35;5.00;1.00
14924;DHT22;7554;43.600;1.480;2022-11-20T04:54:03;4.90;1.00
14924;DHT22;7554;43.600;1.480;2022-11-20T04:56:31;4.90;1.00
14924;DHT22;7554;43.600;1.480;2022-11-20T04:59:00;4.90;1.00
14924;DHT22;7554;43.600;1.480;2022-11-20T05:01:28;4.90;1.00
14924;DHT22;7554;43.600;1.480;2022-11-20T05:03:55;4.90;1.00
14924;DHT22;7554;43.600;1.480;2022-11-20T05:06:23;4.90;1.00
14924;DHT22;7554;43.600;1.480;2022-11-20T05:08:50;4.90;1.00
14924;DHT22;7554;43.600;1.480;2022-11-20T05:11:19;4.80;1.00
14924;DHT22;7554;43.600;1.480;2022-11-20T05:13:48;4.80;1.00
14924;DHT22;7554;43.600;1.480;2022-11-20T05:16:18;4.80;1.00
14924;DHT22;7554;43.600;1.480;2022-11-20T05:18:46;4.80;1.00
14924;DHT22;7554;43.600;1.480;2022-11-20T05:21:14;4.80;1.00
14924;DHT22;7554;43.600;1.480;2022-11-20T05:23:42;4.70;1.00
14924;DHT22;7554;43.600;1.480;2022-11-20T05:26:13;4.70;1.00
14924;DHT22;7554;43.600;1.480;2022-11-20T05:28:41;4.70;1.00
14924;DHT22;7554;43.600;1.480;2022-11-20T05:31:11;4.70;1.00
14924;DHT22;7554;43.600;1.480;2022-11-20T05:33:40;4.70;1.00
14924;DHT22;7554;43.600;1.480;2022-11-20T05:36:09;4.70;1.00
14924;DHT22;7554;43.600;1.480;2022-11-20T05:38:36;4.60;1.00
14924;DHT22;7554;43.600;1.480;2022-11-20T05:41:05;4.70;1.00
14924;DHT22;7554;43.600;1.480;2022-11-20T05:43:33;4.60;1.00
14924;DHT22;7554;43.600;1.480;2022-11-20T05:46:02;4.70;1.00
14924;DHT22;7554;43.600;1.480;2022-11-20T05:48:31;4.60;1.00
14924;DHT22;7554;43.600;1.480;2022-11-20T05:50:59;4.60;1.00
14924;DHT22;7554;43.600;1.480;2022-11-20T05:53:27;4.50;1.00
14924;DHT22;7554;43.600;1.480;2022-11-20T05:55:58;4.50;1.00
14924;DHT22;7554;43.600;1.480;2022-11-20T05:58:25;4.50;1.00
14924;DHT22;7554;43.600;1.480;2022-11-20T06:00:53;4.50;1.00
14924;DHT22;7554;43.600;1.480;2022-11-20T06:03:20;4.50;1.00
14924;DHT22;7554;43.600;1.480;2022-11-20T06:05:49;4.50;1.00
14924;DHT22;7554;43.600;1.480;2022-11-20T06:08:17;4.50;1.00
14924;DHT22;7554;43.600;1.480;2022-11-20T06:10:44;4.50;1.00
14924;DHT22;7554;43.600;1.480;2022-11-20T06:13:11;4.50;1.00
14924;DHT22;7554;43.600;1.480;2022-11-20T06:15:39;4.50;1.00
14924;DHT22;7554;43.600;1.480;2022-11-20T06:18:06;4.50;1.00
14924;DHT22;7554;43.600;1.480;2022-11-20T06:20:33;4.50;1.00
14924;DHT22;7554;43.600;1.480;2022-11-20T06:23:02;4.50;1.00
14924;DHT22;7554;43.600;1.480;2022-11-20T06:25:29;4.50;1.00
14924;DHT22;7554;43.600;1.480;2022-11-20T06:27:57;4.40;1.00
14924;DHT22;7554;43.600;1.480;2022-11-20T06:30:24;4.40;1.00
14924;DHT22;7554;43.600;1.480;2022-11-20T06:32:51;4.40;1.00
14924;DHT22;7554;43.600;1.480;2022-11-20T06:35:19;4.40;1.00
14924;DHT22;7554;43.600;1.480;2022-11-20T06:37:46;4.40;1.00
14924;DHT22;7554;43.600;1.480;2022-11-20T06:40:15;4.40;1.00
14924;DHT22;7554;43.600;1.480;2022-11-20T06:42:43;4.30;1.00
14924;DHT22;7554;43.600;1.480;2022-11-20T06:45:10;4.40;1.00
14924;DHT22;7554;43.600;1.480;2022-11-20T06:47:37;4.40;1.00
14924;DHT22;7554;43.600;1.480;2022-11-20T06:50:05;4.40;1.00
14924;DHT22;7554;43.600;1.480;2022-11-20T06:52:33;4.50;1.00
14924;DHT22;7554;43.600;1.480;2022-11-20T06:55:00;4.60;1.00
14924;DHT22;7554;43.600;1.480;2022-11-20T06:57:29;4.60;1.00
14924;DHT22;7554;43.600;1.480;2022-11-20T06:59:56;4.70;1.00
14924;DHT22;7554;43.600;1.480;2022-11-20T07:02:24;4.70;1.00
14924;DHT22;7554;43.600;1.480;2022-11-20T07:04:51;4.80;1.00
14924;DHT22;7554;43.600;1.480;2022-11-20T07:07:18;4.80;1.00
14924;DHT22;7554;43.600;1.480;2022-11-20T07:09:46;4.90;1.00
14924;DHT22;7554;43.600;1.480;2022-11-20T07:12:13;4.90;1.00
14924;DHT22;7554;43.600;1.480;2022-11-20T07:14:42;4.90;1.00
14924;DHT22;7554;43.600;1.480;2022-11-20T07:17:09;5.00;1.00
14924;DHT22;7554;43.600;1.480;2022-11-20T07:19:36;5.00;1.00
14924;DHT22;7554;43.600;1.480;2022-11-20T07:22:04;4.90;1.00
14924;DHT22;7554;43.600;1.480;2022-11-20T07:24:31;4.90;1.00
14924;DHT22;7554;43.600;1.480;2022-11-20T07:26:58;4.90;1.00
14924;DHT22;7554;43.600;1.480;2022-11-20T07:29:26;4.80;1.00
14924;DHT22;7554;43.600;1.480;2022-11-20T07:31:55;4.90;1.00
14924;DHT22;7554;43.600;1.480;2022-11-20T07:34:22;5.00;1.00
14924;DHT22;7554;43.600;1.480;2022-11-20T07:36:50;5.10;1.00
14924;DHT22;7554;43.600;1.480;2022-11-20T07:39:17;5.10;1.00
14924;DHT22;7554;43.600;1.480;2022-11-20T07:41:44;4.90;1.00
14924;DHT22;7554;43.600;1.480;2022-11-20T07:44:11;4.90;1.00
14924;DHT22;7554;43.600;1.480;2022-11-20T07:46:39;5.00;1.00
14924;DHT22;7554;43.600;1.480;2022-11-20T07:49:08;5.00;1.00
14924;DHT22;7554;43.600;1.480;2022-11-20T07:51:35;5.00;1.00
14924;DHT22;7554;43.600;1.480;2022-11-20T07:54:02;5.00;1.00
14924;DHT22;7554;43.600;1.480;2022-11-20T07:56:30;5.10;1.00
14924;DHT22;7554;43.600;1.480;2022-11-20T07:58:57;5.10;1.00
14924;DHT22;7554;43.600;1.480;2022-11-20T08:01:24;5.40;1.00
14924;DHT22;7554;43.600;1.480;2022-11-20T08:03:52;5.60;1.00
14924;DHT22;7554;43.600;1.480;2022-11-20T08:06:20;5.80;1.00
14924;DHT22;7554;43.600;1.480;2022-11-20T08:08:48;6.10;1.00
14924;DHT22;7554;43.600;1.480;2022-11-20T08:11:15;6.10;1.00
14924;DHT22;7554;43.600;1.480;2022-11-20T08:14:00;6.00;1.00
14924;DHT22;7554;43.600;1.480;2022-11-20T08:16:39;5.80;1.00
14924;DHT22;7554;43.600;1.480;2022-11-20T08:19:07;5.80;1.00
14924;DHT22;7554;43.600;1.480;2022-11-20T08:21:36;5.80;1.00
14924;DHT22;7554;43.600;1.480;2022-11-20T08:24:04;5.60;1.00
14924;DHT22;7554;43.600;1.480;2022-11-20T08:26:32;5.70;1.00
14924;DHT22;7554;43.600;1.480;2022-11-20T08:28:59;5.80;1.00
14924;DHT22;7554;43.600;1.480;2022-11-20T08:31:27;5.60;1.00
14924;DHT22;7554;43.600;1.480;2022-11-20T08:33:55;5.70;1.00
14924;DHT22;7554;43.600;1.480;2022-11-20T08:36:23;6.00;1.00
14924;DHT22;7554;43.600;1.480;2022-11-20T08:38:54;5.80;1.00
14924;DHT22;7554;43.600;1.480;2022-11-20T08:41:22;6.20;1.00
14924;DHT22;7554;43.600;1.480;2022-11-20T08:43:55;6.40;1.00
14924;DHT22;7554;43.600;1.480;2022-11-20T08:46:23;6.60;1.00
14924;DHT22;7554;43.600;1.480;2022-11-20T08:48:51;6.70;1.00
14924;DHT22;7554;43.600;1.480;2022-11-20T08:51:19;6.50;1.00
14924;DHT22;7554;43.600;1.480;2022-11-20T08:53:47;6.40;1.00
14924;DHT22;7554;43.600;1.480;2022-11-20T08:56:17;6.70;1.00
14924;DHT22;7554;43.600;1.480;2022-11-20T08:58:44;6.60;1.00
14924;DHT22;7554;43.600;1.480;2022-11-20T09:01:12;6.60;1.00
14924;DHT22;7554;43.600;1.480;2022-11-20T09:03:39;6.50;1.00
14924;DHT22;7554;43.600;1.480;2022-11-20T09:06:08;6.20;1.00
14924;DHT22;7554;43.600;1.480;2022-11-20T09:08:35;6.70;1.00
14924;DHT22;7554;43.600;1.480;2022-11-20T09:11:04;7.30;1.00
14924;DHT22;7554;43.600;1.480;2022-11-20T09:13:34;7.10;1.00
14924;DHT22;7554;43.600;1.480;2022-11-20T09:16:03;7.00;1.00
14924;DHT22;7554;43.600;1.480;2022-11-20T09:18:32;6.90;1.00
14924;DHT22;7554;43.600;1.480;2022-11-20T09:21:01;7.20;1.00
14924;DHT22;7554;43.600;1.480;2022-11-20T09:23:32;7.00;1.00
14924;DHT22;7554;43.600;1.480;2022-11-20T09:26:02;7.10;1.00
14924;DHT22;7554;43.600;1.480;2022-11-20T09:28:30;7.20;1.00
14924;DHT22;7554;43.600;1.480;2022-11-20T09:30:59;7.20;1.00
14924;DHT22;7554;43.600;1.480;2022-11-20T09:33:27;7.20;1.00
14924;DHT22;7554;43.600;1.480;2022-11-20T09:35:54;7.40;1.00
14924;DHT22;7554;43.600;1.480;2022-11-20T09:38:23;7.40;1.00
14924;DHT22;7554;43.600;1.480;2022-11-20T09:40:55;7.80;1.00
14924;DHT22;7554;43.600;1.480;2022-11-20T09:43:30;7.30;1.00
14924;DHT22;7554;43.600;1.480;2022-11-20T09:46:08;7.30;1.00
14924;DHT22;7554;43.600;1.480;2022-11-20T09:48:50;7.10;1.00
14924;DHT22;7554;43.600;1.480;2022-11-20T09:51:30;7.00;1.00
14924;DHT22;7554;43.600;1.480;2022-11-20T09:54:09;6.90;1.00
14924;DHT22;7554;43.600;1.480;2022-11-20T09:56:43;7.20;1.00
14924;DHT22;7554;43.600;1.480;2022-11-20T09:59:23;7.40;1.00
14924;DHT22;7554;43.600;1.480;2022-11-20T10:01:55;7.60;1.00
14924;DHT22;7554;43.600;1.480;2022-11-20T10:04:23;8.00;1.00
14924;DHT22;7554;43.600;1.480;2022-11-20T10:06:55;7.60;1.00
14924;DHT22;7554;43.600;1.480;2022-11-20T10:09:29;7.10;1.00
14924;DHT22;7554;43.600;1.480;2022-11-20T10:12:06;7.10;1.00
14924;DHT22;7554;43.600;1.480;2022-11-20T10:14:50;7.20;1.00
14924;DHT22;7554;43.600;1.480;2022-11-20T10:17:29;7.30;1.00
14924;DHT22;7554;43.600;1.480;2022-11-20T10:20:10;7.40;1.00
14924;DHT22;7554;43.600;1.480;2022-11-20T10:23:03;7.30;1.00
14924;DHT22;7554;43.600;1.480;2022-11-20T10:25:38;7.20;1.00
14924;DHT22;7554;43.600;1.480;2022-11-20T10:28:22;7.40;1.00
14924;DHT22;7554;43.600;1.480;2022-11-20T10:30:57;7.50;1.00
14924;DHT22;7554;43.600;1.480;2022-11-20T10:33:31;7.60;1.00
14924;DHT22;7554;43.600;1.480;2022-11-20T10:36:07;7.50;1.00
14924;DHT22;7554;43.600;1.480;2022-11-20T10:38:39;7.70;1.00
14924;DHT22;7554;43.600;1.480;2022-11-20T10:41:14;7.80;1.00
14924;DHT22;7554;43.600;1.480;2022-11-20T10:43:58;7.70;1.00
14924;DHT22;7554;43.600;1.480;2022-11-20T10:46:32;7.80;1.00
14924;DHT22;7554;43.600;1.480;2022-11-20T10:49:09;7.90;1.00
14924;DHT22;7554;43.600;1.480;2022-11-20T10:51:47;7.90;1.00
14924;DHT22;7554;43.600;1.480;2022-11-20T10:54:24;7.90;1.00
14924;DHT22;7554;43.600;1.480;2022-11-20T10:57:02;8.00;1.00
14924;DHT22;7554;43.600;1.480;2022-11-20T10:59:56;8.10;1.00
14924;DHT22;7554;43.600;1.480;2022-11-20T11:02:33;8.20;1.00
14924;DHT22;7554;43.600;1.480;2022-11-20T11:05:14;8.30;1.00
14924;DHT22;7554;43.600;1.480;2022-11-20T11:07:45;8.40;1.00
14924;DHT22;7554;43.600;1.480;2022-11-20T11:10:16;8.40;1.00
14924;DHT22;7554;43.600;1.480;2022-11-20T11:12:46;8.50;1.00
14924;DHT22;7554;43.600;1.480;2022-11-20T11:15:24;8.50;1.00
14924;DHT22;7554;43.600;1.480;2022-11-20T11:17:52;8.60;1.00
14924;DHT22;7554;43.600;1.480;2022-11-20T11:20:23;8.70;1.00
14924;DHT22;7554;43.600;1.480;2022-11-20T11:22:53;8.80;1.00
14924;DHT22;7554;43.600;1.480;2022-11-20T11:25:29;9.00;1.00
14924;DHT22;7554;43.600;1.480;2022-11-20T11:28:01;9.20;1.00
14924;DHT22;7554;43.600;1.480;2022-11-20T11:30:40;9.50;1.00
14924;DHT22;7554;43.600;1.480;2022-11-20T11:33:11;9.80;1.00
14924;DHT22;7554;43.600;1.480;2022-11-20T11:35:45;10.10;1.00
14924;DHT22;7554;43.600;1.480;2022-11-20T11:38:15;10.10;1.00
14924;DHT22;7554;43.600;1.480;2022-11-20T11:40:44;9.90;1.00
14924;DHT22;7554;43.600;1.480;2022-11-20T11:43:19;9.70;1.00
14924;DHT22;7554;43.600;1.480;2022-11-20T11:46:21;9.60;1.00
14924;DHT22;7554;43.600;1.480;2022-11-20T11:48:56;10.00;1.00
14924;DHT22;7554;43.600;1.480;2022-11-20T11:51:28;10.40;1.00
14924;DHT22;7554;43.600;1.480;2022-11-20T11:53:58;10.60;1.00
14924;DHT22;7554;43.600;1.480;2022-11-20T11:56:27;10.60;1.00
14924;DHT22;7554;43.600;1.480;2022-11-20T11:58:57;10.60;1.00
14924;DHT22;7554;43.600;1.480;2022-11-20T12:01:31;10.60;1.00
14924;DHT22;7554;43.600;1.480;2022-11-20T12:04:04;10.90;1.00
14924;DHT22;7554;43.600;1.480;2022-11-20T12:06:36;11.10;1.00
14924;DHT22;7554;43.600;1.480;2022-11-20T12:09:10;10.90;1.00
14924;DHT22;7554;43.600;1.480;2022-11-20T12:11:42;10.80;1.00
14924;DHT22;7554;43.600;1.480;2022-11-20T12:14:14;10.70;1.00
14924;DHT22;7554;43.600;1.480;2022-11-20T12:16:46;10.70;1.00
14924;DHT22;7554;43.600;1.480;2022-11-20T12:19:14;10.90;1.00
14924;DHT22;7554;43.600;1.480;2022-11-20T12:21:52;11.20;1.00
14924;DHT22;7554;43.600;1.480;2022-11-20T12:24:39;11.30;1.00
14924;DHT22;7554;43.600;1.480;2022-11-20T12:27:25;11.30;1.00
14924;DHT22;7554;43.600;1.480;2022-11-20T12:30:01;11.50;1.00
14924;DHT22;7554;43.600;1.480;2022-11-20T12:32:48;11.60;1.00
14924;DHT22;7554;43.600;1.480;2022-11-20T12:35:39;11.80;1.00
14924;DHT22;7554;43.600;1.480;2022-11-20T12:38:29;11.80;1.00
14924;DHT22;7554;43.600;1.480;2022-11-20T12:41:04;11.90;1.00
14924;DHT22;7554;43.600;1.480;2022-11-20T12:43:37;12.00;1.00
14924;DHT22;7554;43.600;1.480;2022-11-20T12:46:32;12.10;1.00
14924;DHT22;7554;43.600;1.480;2022-11-20T12:49:18;12.00;1.00
14924;DHT22;7554;43.600;1.480;2022-11-20T12:52:05;12.00;1.00
14924;DHT22;7554;43.600;1.480;2022-11-20T12:57:38;12.20;1.00
14924;DHT22;7554;43.600;1.480;2022-11-20T13:00:12;12.30;1.00
14924;DHT22;7554;43.600;1.480;2022-11-20T13:03:06;12.20;1.00
14924;DHT22;7554;43.600;1.480;2022-11-20T13:05:46;12.20;1.00
14924;DHT22;7554;43.600;1.480;2022-11-20T13:08:20;12.30;1.00
14924;DHT22;7554;43.600;1.480;2022-11-20T13:10:55;12.10;1.00
14924;DHT22;7554;43.600;1.480;2022-11-20T13:13:29;11.80;1.00
14924;DHT22;7554;43.600;1.480;2022-11-20T13:16:02;11.40;1.00
14924;DHT22;7554;43.600;1.480;2022-11-20T13:18:38;11.20;1.00
14924;DHT22;7554;43.600;1.480;2022-11-20T13:21:14;11.00;1.00
14924;DHT22;7554;43.600;1.480;2022-11-20T13:23:42;10.90;1.00
14924;DHT22;7554;43.600;1.480;2022-11-20T13:26:22;11.00;1.00
14924;DHT22;7554;43.600;1.480;2022-11-20T13:29:03;11.00;1.00
14924;DHT22;7554;43.600;1.480;2022-11-20T13:31:33;10.90;1.00
14924;DHT22;7554;43.600;1.480;2022-11-20T13:34:04;10.80;1.00
14924;DHT22;7554;43.600;1.480;2022-11-20T13:36:32;10.70;1.00
14924;DHT22;7554;43.600;1.480;2022-11-20T13:39:02;10.70;1.00
14924;DHT22;7554;43.600;1.480;2022-11-20T13:41:33;10.60;1.00
14924;DHT22;7554;43.600;1.480;2022-11-20T13:44:14;10.70;1.00
14924;DHT22;7554;43.600;1.480;2022-11-20T13:46:43;10.80;1.00
14924;DHT22;7554;43.600;1.480;2022-11-20T13:49:17;10.80;1.00
14924;DHT22;7554;43.600;1.480;2022-11-20T13:51:46;10.90;1.00
14924;DHT22;7554;43.600;1.480;2022-11-20T14:00:27;11.20;1.00
14924;DHT22;7554;43.600;1.480;2022-11-20T14:03:09;11.10;1.00
14924;DHT22;7554;43.600;1.480;2022-11-20T14:05:48;11.00;1.00
14924;DHT22;7554;43.600;1.480;2022-11-20T14:08:26;11.00;1.00
14924;DHT22;7554;43.600;1.480;2022-11-20T14:11:14;11.30;1.00
14924;DHT22;7554;43.600;1.480;2022-11-20T14:13:59;11.70;1.00
14924;DHT22;7554;43.600;1.480;2022-11-20T14:16:28;11.90;1.00
14924;DHT22;7554;43.600;1.480;2022-11-20T14:18:57;11.80;1.00
14924;DHT22;7554;43.600;1.480;2022-11-20T14:21:27;11.80;1.00
14924;DHT22;7554;43.600;1.480;2022-11-20T14:24:03;11.70;1.00
14924;DHT22;7554;43.600;1.480;2022-11-20T14:26:32;11.80;1.00
14924;DHT22;7554;43.600;1.480;2022-11-20T14:29:01;11.90;1.00
14924;DHT22;7554;43.600;1.480;2022-11-20T14:31:28;12.00;1.00
14924;DHT22;7554;43.600;1.480;2022-11-20T14:33:56;11.90;1.00
14924;DHT22;7554;43.600;1.480;2022-11-20T14:36:25;11.90;1.00
14924;DHT22;7554;43.600;1.480;2022-11-20T14:38:53;11.90;1.00
14924;DHT22;7554;43.600;1.480;2022-11-20T14:41:22;12.00;1.00
14924;DHT22;7554;43.600;1.480;2022-11-20T14:43:54;12.00;1.00
14924;DHT22;7554;43.600;1.480;2022-11-20T14:46:25;12.00;1.00
14924;DHT22;7554;43.600;1.480;2022-11-20T14:48:55;12.10;1.00
14924;DHT22;7554;43.600;1.480;2022-11-20T14:51:31;12.10;1.00
14924;DHT22;7554;43.600;1.480;2022-11-20T14:54:10;12.10;1.00
14924;DHT22;7554;43.600;1.480;2022-11-20T14:56:37;12.10;1.00
14924;DHT22;7554;43.600;1.480;2022-11-20T14:59:05;12.10;1.00
14924;DHT22;7554;43.600;1.480;2022-11-20T15:01:34;12.10;1.00
14924;DHT22;7554;43.600;1.480;2022-11-20T15:04:07;12.10;1.00
14924;DHT22;7554;43.600;1.480;2022-11-20T15:06:35;12.10;1.00
14924;DHT22;7554;43.600;1.480;2022-11-20T15:09:03;12.00;1.00
14924;DHT22;7554;43.600;1.480;2022-11-20T15:11:32;11.90;1.00
14924;DHT22;7554;43.600;1.480;2022-11-20T15:14:03;11.90;1.00
14924;DHT22;7554;43.600;1.480;2022-11-20T15:16:31;11.80;1.00
14924;DHT22;7554;43.600;1.480;2022-11-20T15:19:02;11.70;1.00
14924;DHT22;7554;43.600;1.480;2022-11-20T15:21:35;11.70;1.00
14924;DHT22;7554;43.600;1.480;2022-11-20T15:24:02;11.80;1.00
14924;DHT22;7554;43.600;1.480;2022-11-20T15:26:30;11.80;1.00
14924;DHT22;7554;43.600;1.480;2022-11-20T15:28:57;11.90;1.00
14924;DHT22;7554;43.600;1.480;2022-11-20T15:31:24;12.00;1.00
14924;DHT22;7554;43.600;1.480;2022-11-20T15:33:52;12.00;1.00
14924;DHT22;7554;43.600;1.480;2022-11-20T15:36:21;11.90;1.00
14924;DHT22;7554;43.600;1.480;2022-11-20T15:38:48;11.90;1.00
14924;DHT22;7554;43.600;1.480;2022-11-20T15:41:16;11.80;1.00
14924;DHT22;7554;43.600;1.480;2022-11-20T15:43:43;11.70;1.00
14924;DHT22;7554;43.600;1.480;2022-11-20T15:46:13;11.80;1.00
14924;DHT22;7554;43.600;1.480;2022-11-20T15:48:43;11.70;1.00
14924;DHT22;7554;43.600;1.480;2022-11-20T15:51:21;11.70;1.00
14924;DHT22;7554;43.600;1.480;2022-11-20T15:53:50;11.80;1.00
14924;DHT22;7554;43.600;1.480;2022-11-20T15:56:18;11.70;1.00
14924;DHT22;7554;43.600;1.480;2022-11-20T15:58:45;11.70;1.00
14924;DHT22;7554;43.600;1.480;2022-11-20T16:01:14;11.70;1.00
14924;DHT22;7554;43.600;1.480;2022-11-20T16:03:42;11.70;1.00
14924;DHT22;7554;43.600;1.480;2022-11-20T16:06:09;11.70;1.00
14924;DHT22;7554;43.600;1.480;2022-11-20T16:08:38;11.70;1.00
14924;DHT22;7554;43.600;1.480;2022-11-20T16:11:05;11.60;1.00
14924;DHT22;7554;43.600;1.480;2022-11-20T16:13:35;11.60;1.00
14924;DHT22;7554;43.600;1.480;2022-11-20T16:16:22;11.60;1.00
14924;DHT22;7554;43.600;1.480;2022-11-20T16:18:51;11.50;1.00
14924;DHT22;7554;43.600;1.480;2022-11-20T16:21:18;11.50;1.00
14924;DHT22;7554;43.600;1.480;2022-11-20T16:23:47;11.50;1.00
14924;DHT22;7554;43.600;1.480;2022-11-20T16:26:16;11.40;1.00
14924;DHT22;7554;43.600;1.480;2022-11-20T16:28:44;11.40;1.00
14924;DHT22;7554;43.600;1.480;2022-11-20T16:31:13;11.40;1.00
14924;DHT22;7554;43.600;1.480;2022-11-20T16:33:41;11.40;1.00
14924;DHT22;7554;43.600;1.480;2022-11-20T16:36:10;11.40;1.00
14924;DHT22;7554;43.600;1.480;2022-11-20T16:38:37;11.40;1.00
14924;DHT22;7554;43.600;1.480;2022-11-20T16:41:07;11.50;1.00
14924;DHT22;7554;43.600;1.480;2022-11-20T16:43:44;11.50;1.00